sensor_id;sensor_type;location;lat;lon;timestamp;pressure;altitude;pressure_sealevel;temperature;humidity
34073;BME280;20346;52.702;16.886;2023-03-02T00:02:12;101933.27;;;-2.02;67.39
34073;BME280;20346;52.702;16.886;2023-03-02T00:05:02;101936.88;;;-2.04;67.40
34073;BME280;20346;52.702;16.886;2023-03-02T00:07:48;101935.82;;;-2.08;67.43
34073;BME280;20346;52.702;16.886;2023-03-02T00:10:34;101937.91;;;-2.10;67.46
34073;BME280;20346;52.702;16.886;2023-03-02T00:13:21;101930.67;;;-2.12;67.52
34073;BME280;20346;52.702;16.886;2023-03-02T00:16:07;101930.02;;;-2.12;67.57
34073;BME280;20346;52.702;16.886;2023-03-02T00:18:53;101926.96;;;-2.15;67.53
34073;BME280;20346;52.702;16.886;2023-03-02T00:21:39;101929.97;;;-2.16;67.55
34073;BME280;20346;52.702;16.886;2023-03-02T00:24:26;101931.84;;;-2.15;67.60
34073;BME280;20346;52.702;16.886;2023-03-02T00:27:12;101930.05;;;-2.17;67.62
34073;BME280;20346;52.702;16.886;2023-03-02T00:29:58;101928.10;;;-2.19;67.52
34073;BME280;20346;52.702;16.886;2023-03-02T00:32:45;101927.86;;;-2.20;67.55
34073;BME280;20346;52.702;16.886;2023-03-02T00:35:35;101930.13;;;-2.22;67.55
34073;BME280;20346;52.702;16.886;2023-03-02T00:38:21;101925.86;;;-2.22;67.56
34073;BME280;20346;52.702;16.886;2023-03-02T00:41:07;101924.11;;;-2.23;67.55
34073;BME280;20346;52.702;16.886;2023-03-02T00:43:55;101923.73;;;-2.24;67.62
34073;BME280;20346;52.702;16.886;2023-03-02T00:46:41;101924.45;;;-2.27;67.55
34073;BME280;20346;52.702;16.886;2023-03-02T00:49:28;101922.27;;;-2.32;67.53
34073;BME280;20346;52.702;16.886;2023-03-02T00:52:15;101921.02;;;-2.36;67.59
34073;BME280;20346;52.702;16.886;2023-03-02T00:55:01;101916.39;;;-2.38;67.68
34073;BME280;20346;52.702;16.886;2023-03-02T00:57:51;101915.14;;;-2.36;67.79
34073;BME280;20346;52.702;16.886;2023-03-02T01:00:39;101908.57;;;-2.36;67.71
34073;BME280;20346;52.702;16.886;2023-03-02T01:03:25;101911.58;;;-2.36;67.67
34073;BME280;20346;52.702;16.886;2023-03-02T01:06:16;101909.42;;;-2.38;67.74
34073;BME280;20346;52.702;16.886;2023-03-02T01:09:02;101903.56;;;-2.44;67.61
34073;BME280;20346;52.702;16.886;2023-03-02T01:11:48;101905.79;;;-2.46;67.64
34073;BME280;20346;52.702;16.886;2023-03-02T01:14:35;101902.91;;;-2.46;67.73
34073;BME280;20346;52.702;16.886;2023-03-02T01:17:21;101903.04;;;-2.47;67.79
34073;BME280;20346;52.702;16.886;2023-03-02T01:20:07;101894.92;;;-2.47;67.75
34073;BME280;20346;52.702;16.886;2023-03-02T01:22:56;101896.77;;;-2.50;67.69
34073;BME280;20346;52.702;16.886;2023-03-02T01:25:42;101895.77;;;-2.53;67.74
34073;BME280;20346;52.702;16.886;2023-03-02T01:28:28;101894.98;;;-2.52;67.79
34073;BME280;20346;52.702;16.886;2023-03-02T01:31:14;101891.66;;;-2.54;67.78
34073;BME280;20346;52.702;16.886;2023-03-02T01:34:01;101897.39;;;-2.56;67.77
34073;BME280;20346;52.702;16.886;2023-03-02T01:36:47;101898.08;;;-2.59;67.81
34073;BME280;20346;52.702;16.886;2023-03-02T01:39:33;101905.15;;;-2.60;68.03
34073;BME280;20346;52.702;16.886;2023-03-02T01:42:19;101904.40;;;-2.61;68.05
34073;BME280;20346;52.702;16.886;2023-03-02T01:45:37;101907.31;;;-2.63;67.86
34073;BME280;20346;52.702;16.886;2023-03-02T01:48:12;101903.21;;;-2.68;67.88
34073;BME280;20346;52.702;16.886;2023-03-02T01:51:00;101900.86;;;-2.70;67.84
34073;BME280;20346;52.702;16.886;2023-03-02T01:53:49;101891.48;;;-2.72;67.83
34073;BME280;20346;52.702;16.886;2023-03-02T01:56:36;101890.10;;;-2.75;67.77
34073;BME280;20346;52.702;16.886;2023-03-02T01:59:26;101885.73;;;-2.75;67.90
34073;BME280;20346;52.702;16.886;2023-03-02T02:02:13;101885.39;;;-2.75;67.93
34073;BME280;20346;52.702;16.886;2023-03-02T02:05:00;101885.66;;;-2.76;67.92
34073;BME280;20346;52.702;16.886;2023-03-02T02:07:47;101884.89;;;-2.75;67.90
34073;BME280;20346;52.702;16.886;2023-03-02T02:10:33;101883.80;;;-2.74;67.97
34073;BME280;20346;52.702;16.886;2023-03-02T02:13:20;101885.41;;;-2.72;68.01
34073;BME280;20346;52.702;16.886;2023-03-02T02:16:06;101884.04;;;-2.69;67.96
34073;BME280;20346;52.702;16.886;2023-03-02T02:18:52;101882.34;;;-2.70;68.07
34073;BME280;20346;52.702;16.886;2023-03-02T02:21:38;101883.33;;;-2.67;68.08
34073;BME280;20346;52.702;16.886;2023-03-02T02:24:30;101882.52;;;-2.63;68.11
34073;BME280;20346;52.702;16.886;2023-03-02T02:27:18;101877.45;;;-2.60;68.12
34073;BME280;20346;52.702;16.886;2023-03-02T02:30:04;101874.75;;;-2.57;68.25
34073;BME280;20346;52.702;16.886;2023-03-02T02:32:51;101875.21;;;-2.52;68.36
34073;BME280;20346;52.702;16.886;2023-03-02T02:35:38;101874.73;;;-2.46;68.42
34073;BME280;20346;52.702;16.886;2023-03-02T02:38:25;101875.77;;;-2.39;68.45
34073;BME280;20346;52.702;16.886;2023-03-02T02:41:11;101866.98;;;-2.34;68.55
34073;BME280;20346;52.702;16.886;2023-03-02T02:44:00;101868.29;;;-2.28;68.67
34073;BME280;20346;52.702;16.886;2023-03-02T02:46:46;101867.00;;;-2.24;68.79
34073;BME280;20346;52.702;16.886;2023-03-02T02:49:36;101868.56;;;-2.17;68.79
34073;BME280;20346;52.702;16.886;2023-03-02T02:52:24;101863.39;;;-2.10;68.85
34073;BME280;20346;52.702;16.886;2023-03-02T02:55:12;101865.14;;;-2.03;68.91
34073;BME280;20346;52.702;16.886;2023-03-02T02:58:02;101864.45;;;-1.96;68.92
34073;BME280;20346;52.702;16.886;2023-03-02T03:00:54;101858.70;;;-1.90;69.23
34073;BME280;20346;52.702;16.886;2023-03-02T03:03:42;101857.81;;;-1.79;69.71
34073;BME280;20346;52.702;16.886;2023-03-02T03:06:31;101858.84;;;-1.66;69.99
34073;BME280;20346;52.702;16.886;2023-03-02T03:09:27;101857.60;;;-1.54;70.02
34073;BME280;20346;52.702;16.886;2023-03-02T03:12:20;101856.48;;;-1.43;70.02
34073;BME280;20346;52.702;16.886;2023-03-02T03:15:07;101857.17;;;-1.33;70.14
34073;BME280;20346;52.702;16.886;2023-03-02T03:17:55;101857.99;;;-1.24;70.15
34073;BME280;20346;52.702;16.886;2023-03-02T03:20:41;101860.05;;;-1.14;70.31
34073;BME280;20346;52.702;16.886;2023-03-02T03:23:28;101857.94;;;-1.05;70.27
34073;BME280;20346;52.702;16.886;2023-03-02T03:26:14;101857.66;;;-0.97;70.19
34073;BME280;20346;52.702;16.886;2023-03-02T03:29:01;101860.14;;;-0.91;70.33
34073;BME280;20346;52.702;16.886;2023-03-02T03:31:47;101864.34;;;-0.85;70.49
34073;BME280;20346;52.702;16.886;2023-03-02T03:34:34;101860.54;;;-0.80;70.61
34073;BME280;20346;52.702;16.886;2023-03-02T03:37:25;101864.17;;;-0.75;70.48
34073;BME280;20346;52.702;16.886;2023-03-02T03:40:11;101868.06;;;-0.72;70.64
34073;BME280;20346;52.702;16.886;2023-03-02T03:42:57;101864.21;;;-0.68;70.60
34073;BME280;20346;52.702;16.886;2023-03-02T03:45:43;101870.48;;;-0.64;70.88
34073;BME280;20346;52.702;16.886;2023-03-02T03:48:29;101870.24;;;-0.62;70.77
34073;BME280;20346;52.702;16.886;2023-03-02T03:51:15;101871.27;;;-0.58;70.67
34073;BME280;20346;52.702;16.886;2023-03-02T03:54:03;101868.20;;;-0.55;70.61
34073;BME280;20346;52.702;16.886;2023-03-02T03:56:49;101871.67;;;-0.54;70.59
34073;BME280;20346;52.702;16.886;2023-03-02T03:59:35;101871.61;;;-0.51;70.70
34073;BME280;20346;52.702;16.886;2023-03-02T04:02:21;101876.63;;;-0.49;70.80
34073;BME280;20346;52.702;16.886;2023-03-02T04:05:08;101876.84;;;-0.48;70.71
34073;BME280;20346;52.702;16.886;2023-03-02T04:07:54;101877.71;;;-0.47;70.93
34073;BME280;20346;52.702;16.886;2023-03-02T04:10:40;101879.80;;;-0.46;70.97
34073;BME280;20346;52.702;16.886;2023-03-02T04:13:27;101882.02;;;-0.43;70.96
34073;BME280;20346;52.702;16.886;2023-03-02T04:16:13;101881.64;;;-0.40;71.03
34073;BME280;20346;52.702;16.886;2023-03-02T04:18:59;101881.75;;;-0.38;71.07
34073;BME280;20346;52.702;16.886;2023-03-02T04:21:46;101882.39;;;-0.35;71.14
34073;BME280;20346;52.702;16.886;2023-03-02T04:24:33;101877.58;;;-0.33;71.02
34073;BME280;20346;52.702;16.886;2023-03-02T04:27:20;101871.09;;;-0.30;71.13
34073;BME280;20346;52.702;16.886;2023-03-02T04:30:06;101873.17;;;-0.29;71.13
34073;BME280;20346;52.702;16.886;2023-03-02T04:32:53;101874.23;;;-0.31;71.20
34073;BME280;20346;52.702;16.886;2023-03-02T04:35:39;101869.48;;;-0.32;71.20
34073;BME280;20346;52.702;16.886;2023-03-02T04:38:25;101868.52;;;-0.30;71.25
34073;BME280;20346;52.702;16.886;2023-03-02T04:41:15;101873.16;;;-0.29;71.24
34073;BME280;20346;52.702;16.886;2023-03-02T04:44:01;101869.58;;;-0.30;71.20
34073;BME280;20346;52.702;16.886;2023-03-02T04:46:48;101866.33;;;-0.30;71.21
34073;BME280;20346;52.702;16.886;2023-03-02T04:49:34;101866.48;;;-0.31;71.41
34073;BME280;20346;52.702;16.886;2023-03-02T04:52:20;101865.15;;;-0.30;71.36
34073;BME280;20346;52.702;16.886;2023-03-02T04:55:07;101866.52;;;-0.30;71.40
34073;BME280;20346;52.702;16.886;2023-03-02T04:57:53;101866.26;;;-0.28;71.37
34073;BME280;20346;52.702;16.886;2023-03-02T05:00:39;101873.89;;;-0.28;71.34
34073;BME280;20346;52.702;16.886;2023-03-02T05:03:26;101876.95;;;-0.28;71.43
34073;BME280;20346;52.702;16.886;2023-03-02T05:06:12;101875.04;;;-0.29;71.48
34073;BME280;20346;52.702;16.886;2023-03-02T05:08:59;101877.37;;;-0.30;71.41
34073;BME280;20346;52.702;16.886;2023-03-02T05:11:45;101877.83;;;-0.31;71.43
34073;BME280;20346;52.702;16.886;2023-03-02T05:14:31;101879.11;;;-0.32;71.34
34073;BME280;20346;52.702;16.886;2023-03-02T05:17:17;101880.73;;;-0.34;71.47
34073;BME280;20346;52.702;16.886;2023-03-02T05:20:05;101879.13;;;-0.36;71.75
34073;BME280;20346;52.702;16.886;2023-03-02T05:22:53;101882.62;;;-0.37;71.59
34073;BME280;20346;52.702;16.886;2023-03-02T05:25:39;101880.71;;;-0.38;71.65
34073;BME280;20346;52.702;16.886;2023-03-02T05:28:26;101883.85;;;-0.36;71.73
34073;BME280;20346;52.702;16.886;2023-03-02T05:31:32;101890.89;;;-0.34;71.64
34073;BME280;20346;52.702;16.886;2023-03-02T05:34:20;101891.53;;;-0.35;71.79
34073;BME280;20346;52.702;16.886;2023-03-02T05:37:06;101893.15;;;-0.33;71.86
34073;BME280;20346;52.702;16.886;2023-03-02T05:39:52;101894.29;;;-0.30;71.92
34073;BME280;20346;52.702;16.886;2023-03-02T05:42:38;101895.80;;;-0.27;71.89
34073;BME280;20346;52.702;16.886;2023-03-02T05:45:29;101896.54;;;-0.22;71.92
34073;BME280;20346;52.702;16.886;2023-03-02T05:48:15;101896.84;;;-0.20;72.01
34073;BME280;20346;52.702;16.886;2023-03-02T05:51:01;101897.74;;;-0.18;72.01
34073;BME280;20346;52.702;16.886;2023-03-02T05:53:47;101898.72;;;-0.16;72.00
34073;BME280;20346;52.702;16.886;2023-03-02T05:56:33;101897.86;;;-0.16;72.02
34073;BME280;20346;52.702;16.886;2023-03-02T05:59:20;101891.98;;;-0.15;72.20
34073;BME280;20346;52.702;16.886;2023-03-02T06:02:06;101888.83;;;-0.14;72.10
34073;BME280;20346;52.702;16.886;2023-03-02T06:04:52;101889.90;;;-0.12;72.26
34073;BME280;20346;52.702;16.886;2023-03-02T06:07:38;101890.45;;;-0.12;72.21
34073;BME280;20346;52.702;16.886;2023-03-02T06:10:25;101888.16;;;-0.10;72.30
34073;BME280;20346;52.702;16.886;2023-03-02T06:13:11;101890.05;;;-0.06;72.34
34073;BME280;20346;52.702;16.886;2023-03-02T06:15:57;101889.40;;;-0.02;72.42
34073;BME280;20346;52.702;16.886;2023-03-02T06:18:43;101891.92;;;0.02;72.34
34073;BME280;20346;52.702;16.886;2023-03-02T06:21:30;101899.19;;;0.05;72.34
34073;BME280;20346;52.702;16.886;2023-03-02T06:24:16;101905.70;;;0.07;72.29
34073;BME280;20346;52.702;16.886;2023-03-02T06:27:02;101907.86;;;0.09;72.34
34073;BME280;20346;52.702;16.886;2023-03-02T06:29:48;101911.66;;;0.11;72.38
34073;BME280;20346;52.702;16.886;2023-03-02T06:32:35;101915.80;;;0.13;72.26
34073;BME280;20346;52.702;16.886;2023-03-02T06:35:21;101917.06;;;0.14;72.33
34073;BME280;20346;52.702;16.886;2023-03-02T06:38:08;101921.72;;;0.16;72.42
34073;BME280;20346;52.702;16.886;2023-03-02T06:40:54;101922.67;;;0.18;72.47
34073;BME280;20346;52.702;16.886;2023-03-02T06:43:41;101925.69;;;0.21;72.53
34073;BME280;20346;52.702;16.886;2023-03-02T06:46:27;101931.91;;;0.23;72.48
34073;BME280;20346;52.702;16.886;2023-03-02T06:49:13;101932.17;;;0.25;72.62
34073;BME280;20346;52.702;16.886;2023-03-02T06:51:59;101932.33;;;0.28;72.63
34073;BME280;20346;52.702;16.886;2023-03-02T06:54:45;101934.66;;;0.31;72.64
34073;BME280;20346;52.702;16.886;2023-03-02T06:57:31;101935.11;;;0.33;72.73
34073;BME280;20346;52.702;16.886;2023-03-02T07:00:20;101936.24;;;0.36;72.71
34073;BME280;20346;52.702;16.886;2023-03-02T07:03:10;101938.76;;;0.39;72.69
34073;BME280;20346;52.702;16.886;2023-03-02T07:05:57;101937.55;;;0.42;72.69
34073;BME280;20346;52.702;16.886;2023-03-02T07:08:44;101937.64;;;0.44;72.77
34073;BME280;20346;52.702;16.886;2023-03-02T07:11:31;101940.14;;;0.46;72.70
34073;BME280;20346;52.702;16.886;2023-03-02T07:14:18;101936.02;;;0.46;72.76
34073;BME280;20346;52.702;16.886;2023-03-02T07:17:04;101936.66;;;0.48;72.74
34073;BME280;20346;52.702;16.886;2023-03-02T07:19:50;101931.17;;;0.51;72.80
34073;BME280;20346;52.702;16.886;2023-03-02T07:22:36;101925.31;;;0.53;72.69
34073;BME280;20346;52.702;16.886;2023-03-02T07:25:22;101928.24;;;0.54;72.74
34073;BME280;20346;52.702;16.886;2023-03-02T07:28:08;101931.83;;;0.54;72.86
34073;BME280;20346;52.702;16.886;2023-03-02T07:30:54;101934.31;;;0.53;72.66
34073;BME280;20346;52.702;16.886;2023-03-02T07:33:41;101932.45;;;0.53;72.81
34073;BME280;20346;52.702;16.886;2023-03-02T07:36:27;101929.30;;;0.55;72.94
34073;BME280;20346;52.702;16.886;2023-03-02T07:39:13;101931.55;;;0.56;72.91
34073;BME280;20346;52.702;16.886;2023-03-02T07:41:59;101929.59;;;0.58;72.86
34073;BME280;20346;52.702;16.886;2023-03-02T07:44:46;101929.21;;;0.60;72.96
34073;BME280;20346;52.702;16.886;2023-03-02T07:47:32;101928.84;;;0.63;72.93
34073;BME280;20346;52.702;16.886;2023-03-02T07:50:18;101928.27;;;0.66;72.95
34073;BME280;20346;52.702;16.886;2023-03-02T07:53:04;101930.24;;;0.69;72.87
34073;BME280;20346;52.702;16.886;2023-03-02T07:55:51;101929.15;;;0.66;73.01
34073;BME280;20346;52.702;16.886;2023-03-02T07:58:37;101930.48;;;0.66;73.00
34073;BME280;20346;52.702;16.886;2023-03-02T08:01:23;101932.11;;;0.68;72.95
34073;BME280;20346;52.702;16.886;2023-03-02T08:04:09;101927.38;;;0.72;73.02
34073;BME280;20346;52.702;16.886;2023-03-02T08:06:56;101926.75;;;0.74;72.93
34073;BME280;20346;52.702;16.886;2023-03-02T08:09:42;101925.23;;;0.74;73.00
34073;BME280;20346;52.702;16.886;2023-03-02T08:12:28;101919.85;;;0.75;72.93
34073;BME280;20346;52.702;16.886;2023-03-02T08:15:14;101917.98;;;0.78;72.96
34073;BME280;20346;52.702;16.886;2023-03-02T08:18:00;101916.95;;;0.82;73.01
34073;BME280;20346;52.702;16.886;2023-03-02T08:20:46;101912.63;;;0.80;73.03
34073;BME280;20346;52.702;16.886;2023-03-02T08:23:32;101906.20;;;0.81;73.03
34073;BME280;20346;52.702;16.886;2023-03-02T08:26:19;101906.14;;;0.83;72.99
34073;BME280;20346;52.702;16.886;2023-03-02T08:29:05;101902.54;;;0.86;73.13
34073;BME280;20346;52.702;16.886;2023-03-02T08:31:51;101901.10;;;0.88;73.03
34073;BME280;20346;52.702;16.886;2023-03-02T08:34:38;101899.88;;;0.91;73.07
34073;BME280;20346;52.702;16.886;2023-03-02T08:37:24;101892.36;;;0.94;73.02
34073;BME280;20346;52.702;16.886;2023-03-02T08:40:10;101886.95;;;0.98;73.10
34073;BME280;20346;52.702;16.886;2023-03-02T08:42:56;101887.41;;;1.01;73.14
34073;BME280;20346;52.702;16.886;2023-03-02T08:45:44;101885.33;;;1.05;73.17
34073;BME280;20346;52.702;16.886;2023-03-02T08:48:30;101886.16;;;1.09;73.27
34073;BME280;20346;52.702;16.886;2023-03-02T08:51:18;101883.41;;;1.12;73.13
34073;BME280;20346;52.702;16.886;2023-03-02T08:54:06;101885.95;;;1.08;73.08
34073;BME280;20346;52.702;16.886;2023-03-02T08:56:52;101886.14;;;1.04;73.17
34073;BME280;20346;52.702;16.886;2023-03-02T08:59:38;101881.30;;;1.02;73.22
34073;BME280;20346;52.702;16.886;2023-03-02T09:02:24;101875.67;;;1.05;73.15
34073;BME280;20346;52.702;16.886;2023-03-02T09:05:11;101877.48;;;1.08;73.21
34073;BME280;20346;52.702;16.886;2023-03-02T09:07:57;101874.66;;;1.10;73.25
34073;BME280;20346;52.702;16.886;2023-03-02T09:10:43;101871.89;;;1.12;73.33
34073;BME280;20346;52.702;16.886;2023-03-02T09:13:29;101865.15;;;1.13;73.37
34073;BME280;20346;52.702;16.886;2023-03-02T09:16:15;101867.24;;;1.15;73.19
34073;BME280;20346;52.702;16.886;2023-03-02T09:19:01;101865.73;;;1.15;73.30
34073;BME280;20346;52.702;16.886;2023-03-02T09:21:48;101865.84;;;1.18;73.45
34073;BME280;20346;52.702;16.886;2023-03-02T09:24:34;101868.90;;;1.22;73.38
34073;BME280;20346;52.702;16.886;2023-03-02T09:27:21;101865.00;;;1.26;73.40
34073;BME280;20346;52.702;16.886;2023-03-02T09:30:07;101862.27;;;1.29;73.33
34073;BME280;20346;52.702;16.886;2023-03-02T09:32:54;101860.71;;;1.29;73.27
34073;BME280;20346;52.702;16.886;2023-03-02T09:35:40;101862.27;;;1.29;73.30
34073;BME280;20346;52.702;16.886;2023-03-02T09:38:26;101862.64;;;1.35;73.45
34073;BME280;20346;52.702;16.886;2023-03-02T09:47:13;101867.28;;;1.44;73.33
34073;BME280;20346;52.702;16.886;2023-03-02T09:56:00;101869.38;;;1.62;73.41
34073;BME280;20346;52.702;16.886;2023-03-02T09:58:48;101867.84;;;1.67;73.45
34073;BME280;20346;52.702;16.886;2023-03-02T10:01:42;101867.96;;;1.70;73.40
34073;BME280;20346;52.702;16.886;2023-03-02T10:04:41;101871.37;;;1.74;73.45
34073;BME280;20346;52.702;16.886;2023-03-02T10:13:21;101869.42;;;1.76;73.41
34073;BME280;20346;52.702;16.886;2023-03-02T10:19:03;101868.74;;;1.81;73.44
34073;BME280;20346;52.702;16.886;2023-03-02T10:21:59;101867.30;;;1.83;73.37
34073;BME280;20346;52.702;16.886;2023-03-02T10:24:56;101865.77;;;1.83;73.32
34073;BME280;20346;52.702;16.886;2023-03-02T10:27:44;101866.91;;;1.82;73.40
34073;BME280;20346;52.702;16.886;2023-03-02T10:30:35;101864.52;;;1.81;73.40
34073;BME280;20346;52.702;16.886;2023-03-02T10:33:22;101868.66;;;1.83;73.44
34073;BME280;20346;52.702;16.886;2023-03-02T10:36:18;101863.67;;;1.86;73.43
34073;BME280;20346;52.702;16.886;2023-03-02T10:39:09;101863.40;;;1.87;73.45
34073;BME280;20346;52.702;16.886;2023-03-02T10:41:58;101859.45;;;1.86;73.40
34073;BME280;20346;52.702;16.886;2023-03-02T10:44:48;101855.70;;;1.78;73.41
34073;BME280;20346;52.702;16.886;2023-03-02T10:47:35;101852.71;;;1.75;73.52
34073;BME280;20346;52.702;16.886;2023-03-02T10:50:22;101851.39;;;1.76;73.51
34073;BME280;20346;52.702;16.886;2023-03-02T10:53:15;101853.06;;;1.76;73.50
34073;BME280;20346;52.702;16.886;2023-03-02T10:56:04;101850.86;;;1.72;73.44
34073;BME280;20346;52.702;16.886;2023-03-02T10:58:50;101851.44;;;1.64;73.51
34073;BME280;20346;52.702;16.886;2023-03-02T11:01:36;101848.13;;;1.67;73.59
34073;BME280;20346;52.702;16.886;2023-03-02T11:04:22;101847.48;;;1.72;73.60
34073;BME280;20346;52.702;16.886;2023-03-02T11:07:09;101844.58;;;1.76;73.56
34073;BME280;20346;52.702;16.886;2023-03-02T11:10:16;101842.83;;;1.79;73.61
34073;BME280;20346;52.702;16.886;2023-03-02T11:13:14;101842.32;;;1.83;73.62
34073;BME280;20346;52.702;16.886;2023-03-02T11:19:04;101845.04;;;1.83;73.52
34073;BME280;20346;52.702;16.886;2023-03-02T11:21:55;101843.86;;;1.83;73.50
34073;BME280;20346;52.702;16.886;2023-03-02T11:24:45;101844.92;;;1.84;73.51
34073;BME280;20346;52.702;16.886;2023-03-02T11:27:34;101841.96;;;1.82;73.50
34073;BME280;20346;52.702;16.886;2023-03-02T11:30:23;101843.73;;;1.84;73.50
34073;BME280;20346;52.702;16.886;2023-03-02T11:33:14;101837.98;;;1.85;73.47
34073;BME280;20346;52.702;16.886;2023-03-02T11:36:05;101840.02;;;1.85;73.52
34073;BME280;20346;52.702;16.886;2023-03-02T11:38:53;101837.22;;;1.83;73.49
34073;BME280;20346;52.702;16.886;2023-03-02T11:41:39;101837.05;;;1.83;73.64
34073;BME280;20346;52.702;16.886;2023-03-02T11:44:26;101836.90;;;1.88;73.65
34073;BME280;20346;52.702;16.886;2023-03-02T11:47:13;101837.47;;;1.89;73.46
34073;BME280;20346;52.702;16.886;2023-03-02T11:50:01;101832.27;;;1.87;73.45
34073;BME280;20346;52.702;16.886;2023-03-02T11:52:57;101827.91;;;1.84;73.47
34073;BME280;20346;52.702;16.886;2023-03-02T11:55:45;101825.63;;;1.86;73.51
34073;BME280;20346;52.702;16.886;2023-03-02T11:58:33;101825.23;;;1.89;73.62
34073;BME280;20346;52.702;16.886;2023-03-02T12:01:20;101822.36;;;1.94;73.66
34073;BME280;20346;52.702;16.886;2023-03-02T12:04:23;101820.45;;;1.98;73.57
34073;BME280;20346;52.702;16.886;2023-03-02T12:07:16;101819.83;;;1.99;73.60
34073;BME280;20346;52.702;16.886;2023-03-02T12:10:06;101817.05;;;1.98;73.43
34073;BME280;20346;52.702;16.886;2023-03-02T12:12:57;101815.34;;;1.97;73.44
34073;BME280;20346;52.702;16.886;2023-03-02T12:15:46;101814.92;;;1.91;73.35
34073;BME280;20346;52.702;16.886;2023-03-02T12:21:21;101809.02;;;1.88;73.59
34073;BME280;20346;52.702;16.886;2023-03-02T12:24:20;101800.28;;;1.90;73.64
34073;BME280;20346;52.702;16.886;2023-03-02T12:30:22;101795.00;;;1.90;73.58
34073;BME280;20346;52.702;16.886;2023-03-02T12:33:17;101790.40;;;1.90;73.69
34073;BME280;20346;52.702;16.886;2023-03-02T12:36:14;101783.11;;;1.91;73.73
34073;BME280;20346;52.702;16.886;2023-03-02T12:42:30;101778.66;;;1.90;73.62
34073;BME280;20346;52.702;16.886;2023-03-02T12:48:27;101764.98;;;1.92;73.81
34073;BME280;20346;52.702;16.886;2023-03-02T12:51:18;101763.23;;;1.96;73.70
34073;BME280;20346;52.702;16.886;2023-03-02T12:54:12;101758.84;;;1.96;73.66
34073;BME280;20346;52.702;16.886;2023-03-02T12:59:51;101756.17;;;1.97;73.78
34073;BME280;20346;52.702;16.886;2023-03-02T13:02:43;101754.82;;;1.98;73.69
34073;BME280;20346;52.702;16.886;2023-03-02T13:05:30;101755.23;;;1.95;73.60
34073;BME280;20346;52.702;16.886;2023-03-02T13:08:22;101751.14;;;1.90;73.52
34073;BME280;20346;52.702;16.886;2023-03-02T13:11:12;101749.40;;;1.85;73.50
34073;BME280;20346;52.702;16.886;2023-03-02T13:14:00;101750.50;;;1.83;73.58
34073;BME280;20346;52.702;16.886;2023-03-02T13:19:40;101747.73;;;1.86;73.64
34073;BME280;20346;52.702;16.886;2023-03-02T13:22:26;101743.16;;;1.86;73.62
34073;BME280;20346;52.702;16.886;2023-03-02T13:25:24;101739.91;;;1.86;73.65
34073;BME280;20346;52.702;16.886;2023-03-02T13:28:23;101732.45;;;1.86;73.70
34073;BME280;20346;52.702;16.886;2023-03-02T13:31:20;101731.17;;;1.84;73.68
34073;BME280;20346;52.702;16.886;2023-03-02T13:34:16;101724.64;;;1.87;73.81
34073;BME280;20346;52.702;16.886;2023-03-02T13:37:11;101720.98;;;1.89;73.74
34073;BME280;20346;52.702;16.886;2023-03-02T13:40:03;101717.95;;;1.90;73.77
34073;BME280;20346;52.702;16.886;2023-03-02T13:42:50;101715.13;;;1.91;73.73
34073;BME280;20346;52.702;16.886;2023-03-02T13:45:36;101711.48;;;1.94;73.75
34073;BME280;20346;52.702;16.886;2023-03-02T13:48:22;101707.23;;;1.94;73.80
34073;BME280;20346;52.702;16.886;2023-03-02T13:51:16;101703.57;;;1.96;73.81
34073;BME280;20346;52.702;16.886;2023-03-02T13:54:04;101701.07;;;1.93;73.72
34073;BME280;20346;52.702;16.886;2023-03-02T13:56:51;101695.77;;;1.92;73.79
34073;BME280;20346;52.702;16.886;2023-03-02T13:59:38;101695.77;;;1.92;73.73
34073;BME280;20346;52.702;16.886;2023-03-02T14:02:25;101689.10;;;1.91;73.75
34073;BME280;20346;52.702;16.886;2023-03-02T14:05:16;101686.21;;;1.91;73.79
34073;BME280;20346;52.702;16.886;2023-03-02T14:08:02;101680.28;;;1.91;73.85
34073;BME280;20346;52.702;16.886;2023-03-02T14:10:51;101672.13;;;1.92;73.76
34073;BME280;20346;52.702;16.886;2023-03-02T14:13:45;101668.65;;;1.95;73.88
34073;BME280;20346;52.702;16.886;2023-03-02T14:16:32;101668.06;;;1.97;73.81
34073;BME280;20346;52.702;16.886;2023-03-02T14:19:20;101664.65;;;1.97;73.78
34073;BME280;20346;52.702;16.886;2023-03-02T14:22:10;101663.58;;;1.95;73.71
34073;BME280;20346;52.702;16.886;2023-03-02T14:24:56;101660.51;;;1.95;73.84
34073;BME280;20346;52.702;16.886;2023-03-02T14:27:42;101658.02;;;1.96;73.82
34073;BME280;20346;52.702;16.886;2023-03-02T14:30:28;101653.08;;;1.96;73.82
34073;BME280;20346;52.702;16.886;2023-03-02T14:33:15;101650.52;;;1.96;73.74
34073;BME280;20346;52.702;16.886;2023-03-02T14:36:03;101646.42;;;1.96;73.81
34073;BME280;20346;52.702;16.886;2023-03-02T14:38:50;101639.98;;;1.96;73.78
34073;BME280;20346;52.702;16.886;2023-03-02T14:41:36;101636.73;;;1.96;73.81
34073;BME280;20346;52.702;16.886;2023-03-02T14:44:25;101637.80;;;1.97;73.76
34073;BME280;20346;52.702;16.886;2023-03-02T14:47:12;101634.52;;;1.95;73.69
34073;BME280;20346;52.702;16.886;2023-03-02T14:49:58;101632.42;;;1.94;73.75
34073;BME280;20346;52.702;16.886;2023-03-02T14:52:54;101630.95;;;1.91;73.71
34073;BME280;20346;52.702;16.886;2023-03-02T14:55:42;101628.29;;;1.88;73.61
34073;BME280;20346;52.702;16.886;2023-03-02T14:58:30;101623.28;;;1.86;73.69
34073;BME280;20346;52.702;16.886;2023-03-02T15:01:17;101625.45;;;1.85;73.76
34073;BME280;20346;52.702;16.886;2023-03-02T15:04:04;101625.58;;;1.83;73.72
34073;BME280;20346;52.702;16.886;2023-03-02T15:06:50;101623.68;;;1.83;73.69
34073;BME280;20346;52.702;16.886;2023-03-02T15:09:37;101623.83;;;1.82;73.76
34073;BME280;20346;52.702;16.886;2023-03-02T15:12:23;101621.46;;;1.83;73.74
34073;BME280;20346;52.702;16.886;2023-03-02T15:15:09;101618.42;;;1.83;73.79